Time;durP1;ratioP1;P1;durP2;ratioP2;P2;SDS_P1;SDS_P2;PMS_P1;PMS_P2;Temp;Humidity;BMP_temperature;BMP_pressure;BME280_temperature;BME280_humidity;BME280_pressure;Samples;Min_cycle;Max_cycle;Signal;HPM_P1;HPM_P2
2021/08/15 00:01:59;;;;;;;4.07;3.70;;;;;;;19.27;100.00;96902.13;5072491;28;20291;-86
2021/08/15 00:04:26;;;;;;;3.97;3.50;;;;;;;19.28;100.00;96895.78;5072124;28;20193;-85
2021/08/15 00:06:55;;;;;;;4.90;3.50;;;;;;;19.33;100.00;96890.69;5072481;28;20868;-86
2021/08/15 00:09:22;;;;;;;5.83;3.77;;;;;;;19.20;100.00;96902.09;5073187;28;20280;-85
2021/08/15 00:11:49;;;;;;;3.73;3.40;;;;;;;19.22;100.00;96900.06;5073158;28;20193;-85
2021/08/15 00:14:17;;;;;;;6.03;4.00;;;;;;;19.34;100.00;96897.66;5073222;28;20228;-86
2021/08/15 00:16:44;;;;;;;4.17;3.77;;;;;;;19.27;100.00;96904.81;5073337;28;20197;-86
2021/08/15 00:19:11;;;;;;;6.07;3.67;;;;;;;19.41;100.00;96908.34;5072713;28;20236;-86
2021/08/15 00:21:39;;;;;;;4.53;4.00;;;;;;;19.29;100.00;96901.94;5073009;28;20697;-86
2021/08/15 00:24:08;;;;;;;6.17;3.37;;;;;;;19.20;100.00;96899.44;5072748;28;20634;-85
2021/08/15 00:26:35;;;;;;;5.10;3.87;;;;;;;19.35;100.00;96893.97;5072779;28;20236;-85
2021/08/15 00:29:03;;;;;;;4.37;3.83;;;;;;;19.42;100.00;96897.47;5072291;28;20287;-85
2021/08/15 00:31:30;;;;;;;5.07;3.80;;;;;;;19.34;100.00;96892.31;5072566;28;20204;-85
2021/08/15 00:33:58;;;;;;;5.37;3.90;;;;;;;19.29;100.00;96891.25;5072455;28;20229;-85
2021/08/15 00:36:25;;;;;;;5.17;4.33;;;;;;;19.21;100.00;96882.41;5072663;28;20236;-86
2021/08/15 00:38:52;;;;;;;5.10;3.80;;;;;;;18.98;100.00;96874.75;5072251;28;20740;-85
2021/08/15 00:41:21;;;;;;;5.43;3.80;;;;;;;19.12;100.00;96872.13;5072906;28;20267;-85
2021/08/15 00:43:49;;;;;;;4.33;3.70;;;;;;;19.03;100.00;96876.00;5072597;28;20228;-85
2021/08/15 00:46:16;;;;;;;4.50;3.80;;;;;;;18.89;100.00;96881.22;5072234;28;20288;-85
2021/08/15 00:48:44;;;;;;;3.57;3.27;;;;;;;18.91;100.00;96878.38;5072270;28;20296;-85
2021/08/15 00:51:11;;;;;;;4.87;3.90;;;;;;;18.79;100.00;96871.94;5072520;28;20640;-85
2021/08/15 00:53:40;;;;;;;4.53;3.73;;;;;;;18.84;100.00;96872.16;5072147;28;20237;-85
2021/08/15 00:56:09;;;;;;;5.50;3.57;;;;;;;18.88;100.00;96868.94;5072380;28;20189;-85
2021/08/15 00:58:38;;;;;;;5.00;3.23;;;;;;;18.89;100.00;96877.75;5072202;28;20582;-85
2021/08/15 01:01:06;;;;;;;4.00;3.63;;;;;;;18.84;100.00;96880.97;5072493;28;20219;-85
2021/08/15 01:03:33;;;;;;;3.90;3.50;;;;;;;19.00;100.00;96870.03;5072109;28;20197;-85
2021/08/15 01:06:01;;;;;;;4.03;3.60;;;;;;;18.99;100.00;96868.38;5071972;28;20589;-85
2021/08/15 01:08:29;;;;;;;4.20;3.70;;;;;;;18.66;100.00;96876.13;5071946;28;20236;-85
2021/08/15 01:10:57;;;;;;;8.67;4.07;;;;;;;18.77;100.00;96872.97;5072066;28;20209;-85
2021/08/15 01:13:25;;;;;;;5.40;3.60;;;;;;;18.91;100.00;96867.72;5072162;28;20284;-86
2021/08/15 01:15:54;;;;;;;4.83;4.13;;;;;;;18.63;100.00;96868.53;5072199;28;20229;-85
2021/08/15 01:18:23;;;;;;;5.20;4.23;;;;;;;18.53;100.00;96873.38;5072078;28;20205;-85
2021/08/15 01:20:57;;;;;;;4.07;3.73;;;;;;;18.72;100.00;96867.41;5072059;28;20207;-86
2021/08/15 01:23:24;;;;;;;3.47;3.17;;;;;;;18.75;100.00;96868.84;5071759;28;20178;-84
2021/08/15 01:25:51;;;;;;;5.70;3.60;;;;;;;18.79;100.00;96863.97;5072271;28;20197;-85
2021/08/15 01:28:22;;;;;;;4.57;3.93;;;;;;;18.83;100.00;96857.22;5071691;28;20207;-85
2021/08/15 01:30:50;;;;;;;4.50;3.63;;;;;;;18.63;100.00;96865.88;5072452;28;20201;-85
2021/08/15 01:33:28;;;;;;;13.00;4.07;;;;;;;18.53;100.00;96862.72;5071469;28;20201;-85
2021/08/15 01:35:56;;;;;;;4.23;3.83;;;;;;;18.48;100.00;96854.50;5072172;28;20611;-85
2021/08/15 01:38:25;;;;;;;8.00;3.93;;;;;;;18.25;100.00;96863.56;5071633;28;20295;-84
2021/08/15 01:40:54;;;;;;;5.83;3.97;;;;;;;18.36;100.00;96861.38;5071082;28;20196;-85
2021/08/15 01:43:22;;;;;;;4.90;3.70;;;;;;;18.25;100.00;96855.59;5071558;28;20195;-84
2021/08/15 01:45:50;;;;;;;3.73;3.30;;;;;;;18.32;100.00;96849.47;5071750;28;20748;-85
2021/08/15 01:48:18;;;;;;;7.37;4.13;;;;;;;18.25;100.00;96849.41;5071859;28;20629;-85
2021/08/15 01:50:45;;;;;;;7.27;4.10;;;;;;;18.31;100.00;96848.66;5071554;28;20287;-85
2021/08/15 01:53:14;;;;;;;6.57;3.80;;;;;;;18.37;100.00;96852.38;5071403;28;20193;-85
2021/08/15 01:55:42;;;;;;;3.90;3.43;;;;;;;18.40;100.00;96857.31;5071920;28;20292;-85
2021/08/15 01:58:11;;;;;;;3.93;3.53;;;;;;;18.16;100.00;96856.72;5071161;28;20667;-84
2021/08/15 02:00:41;;;;;;;4.03;3.63;;;;;;;18.27;100.00;96855.38;5071826;28;20666;-85
2021/08/15 02:03:08;;;;;;;6.37;3.73;;;;;;;18.21;100.00;96854.28;5071618;28;20621;-85
2021/08/15 02:05:36;;;;;;;4.67;3.80;;;;;;;18.25;100.00;96854.72;5071507;28;20200;-85
2021/08/15 02:08:05;;;;;;;5.07;4.07;;;;;;;18.23;100.00;96862.91;5069712;28;20276;-84
2021/08/15 02:10:32;;;;;;;6.07;3.60;;;;;;;18.00;100.00;96854.31;5071102;28;20244;-85
2021/08/15 02:13:02;;;;;;;6.27;3.73;;;;;;;17.80;100.00;96852.31;5071594;28;20284;-84
2021/08/15 02:15:29;;;;;;;4.60;4.10;;;;;;;17.88;100.00;96858.53;5071365;28;20316;-85
2021/08/15 02:17:58;;;;;;;5.70;3.13;;;;;;;18.13;100.00;96856.28;5071355;28;20225;-85
2021/08/15 02:20:26;;;;;;;6.07;3.53;;;;;;;18.05;100.00;96850.09;5071717;28;20197;-85
2021/08/15 02:22:53;;;;;;;4.00;3.60;;;;;;;17.82;100.00;96847.63;5071243;28;20193;-85
2021/08/15 02:25:22;;;;;;;10.83;4.37;;;;;;;17.88;100.00;96847.88;5071369;28;20232;-85
2021/08/15 02:27:50;;;;;;;9.00;4.47;;;;;;;17.96;100.00;96845.09;5071473;28;20280;-84
2021/08/15 02:30:19;;;;;;;5.73;3.87;;;;;;;17.76;100.00;96845.72;5070862;28;20201;-84
2021/08/15 02:32:46;;;;;;;4.87;4.37;;;;;;;17.94;100.00;96839.97;5071417;28;20281;-85
2021/08/15 02:35:16;;;;;;;4.97;4.00;;;;;;;18.00;100.00;96843.69;5071095;28;20233;-85
2021/08/15 02:37:45;;;;;;;7.43;4.07;;;;;;;18.00;100.00;96843.69;5070921;28;20200;-84
2021/08/15 02:40:14;;;;;;;4.50;4.10;;;;;;;18.01;100.00;96840.00;5071406;28;20197;-84
2021/08/15 02:42:44;;;;;;;6.30;3.97;;;;;;;17.84;100.00;96842.13;5070981;28;20257;-84
2021/08/15 02:45:14;;;;;;;4.60;4.17;;;;;;;17.96;100.00;96839.75;5070884;28;20225;-84
2021/08/15 02:47:41;;;;;;;7.73;4.00;;;;;;;17.89;100.00;96839.69;5070983;28;20235;-84
2021/08/15 02:50:10;;;;;;;7.77;4.63;;;;;;;17.97;100.00;96844.88;5071030;28;20288;-85
2021/08/15 02:52:39;;;;;;;4.93;4.03;;;;;;;17.97;100.00;96841.41;5073165;28;20209;-84
2021/08/15 02:55:08;;;;;;;5.13;3.87;;;;;;;18.02;100.00;96842.47;5074145;28;20321;-84
2021/08/15 02:57:35;;;;;;;4.27;3.87;;;;;;;17.91;100.00;96845.66;5074397;28;20197;-84
2021/08/15 03:00:02;;;;;;;4.47;4.07;;;;;;;17.77;100.00;96844.72;5074582;28;20288;-85
2021/08/15 03:02:30;;;;;;;7.30;4.20;;;;;;;17.92;100.00;96844.63;5074370;28;20598;-84
2021/08/15 03:04:57;;;;;;;5.60;4.50;;;;;;;17.88;100.00;96840.72;5074490;28;20197;-84
2021/08/15 03:07:26;;;;;;;5.00;4.03;;;;;;;17.96;100.00;96842.41;5074230;28;20288;-84
2021/08/15 03:09:54;;;;;;;7.27;4.37;;;;;;;17.84;100.00;96842.13;5074451;28;20282;-84
2021/08/15 03:12:22;;;;;;;7.23;4.33;;;;;;;17.77;100.00;96843.91;5073844;28;20233;-84
2021/08/15 03:14:49;;;;;;;7.20;4.00;;;;;;;17.61;100.00;96842.25;5074562;28;20323;-84
2021/08/15 03:17:16;;;;;;;4.90;3.90;;;;;;;17.69;100.00;96838.66;5073992;28;20238;-85
2021/08/15 03:19:43;;;;;;;9.60;4.57;;;;;;;17.54;100.00;96844.84;5074162;28;20292;-84
2021/08/15 03:22:11;;;;;;;6.00;4.17;;;;;;;17.69;100.00;96839.47;5074182;28;20193;-84
2021/08/15 03:24:38;;;;;;;6.50;4.23;;;;;;;17.59;100.00;96841.63;5074144;28;20288;-84
2021/08/15 03:27:07;;;;;;;5.63;3.77;;;;;;;17.58;100.00;96830.16;5073858;28;20199;-84
2021/08/15 03:29:34;;;;;;;4.23;3.90;;;;;;;17.52;100.00;96838.88;5073907;28;20189;-84
2021/08/15 03:32:01;;;;;;;5.23;4.53;;;;;;;17.47;100.00;96829.84;5073779;28;20204;-85
2021/08/15 03:34:28;;;;;;;5.60;4.10;;;;;;;17.33;100.00;96840.31;5073850;28;20284;-84
2021/08/15 03:36:56;;;;;;;4.90;4.40;;;;;;;17.35;100.00;96840.13;5073596;28;20201;-84
2021/08/15 03:39:23;;;;;;;5.30;4.87;;;;;;;17.32;100.00;96851.97;5073548;28;20283;-84
2021/08/15 03:41:52;;;;;;;4.80;4.30;;;;;;;17.49;100.00;96838.44;5073623;28;20203;-84
2021/08/15 03:44:21;;;;;;;7.53;6.10;;;;;;;17.31;100.00;96841.50;5073740;28;20193;-84
2021/08/15 03:46:48;;;;;;;6.23;5.27;;;;;;;17.31;100.00;96841.50;5073750;28;20632;-84
2021/08/15 03:49:17;;;;;;;7.53;5.07;;;;;;;17.50;100.00;96845.41;5073633;28;20212;-84
2021/08/15 03:51:45;;;;;;;5.10;4.70;;;;;;;17.64;100.00;96843.72;5073432;28;20263;-84
2021/08/15 03:54:16;;;;;;;5.17;3.80;;;;;;;17.54;100.00;96844.03;5073200;28;20327;-84
2021/08/15 03:56:44;;;;;;;7.30;4.17;;;;;;;17.70;100.00;96840.28;5073174;28;20254;-84
2021/08/15 03:59:11;;;;;;;6.57;4.67;;;;;;;17.60;100.00;96845.94;5073557;28;20280;-84
2021/08/15 04:01:40;;;;;;;6.57;4.43;;;;;;;17.44;100.00;96846.16;5073554;28;20578;-83
2021/08/15 04:04:07;;;;;;;6.07;4.43;;;;;;;17.49;100.00;96844.59;5072403;28;20200;-84
2021/08/15 04:06:34;;;;;;;8.60;4.80;;;;;;;17.32;100.00;96846.66;5073448;28;20594;-84
2021/08/15 04:09:02;;;;;;;7.63;4.77;;;;;;;17.25;100.00;96845.75;5073402;28;20209;-84
2021/08/15 04:11:29;;;;;;;6.47;4.97;;;;;;;17.37;100.00;96839.94;5073208;28;20288;-84
2021/08/15 04:13:57;;;;;;;9.17;4.43;;;;;;;17.16;100.00;96836.22;5072970;28;20685;-84
2021/08/15 04:16:24;;;;;;;14.67;5.47;;;;;;;17.25;100.00;96837.78;5073067;28;20224;-84
2021/08/15 04:18:54;;;;;;;6.70;4.80;;;;;;;17.34;100.00;96838.47;5072864;28;20288;-84
2021/08/15 04:21:22;;;;;;;6.87;4.80;;;;;;;17.13;100.00;96839.25;5073006;28;20242;-84
2021/08/15 04:23:49;;;;;;;7.90;4.70;;;;;;;16.90;100.00;96835.88;5072716;28;20200;-84
2021/08/15 04:26:16;;;;;;;9.37;6.10;;;;;;;17.01;100.00;96835.44;5072710;28;20292;-84
2021/08/15 04:28:43;;;;;;;7.93;4.70;;;;;;;17.11;100.00;96838.59;5072956;28;20586;-84
2021/08/15 04:31:12;;;;;;;32.07;6.50;;;;;;;16.92;100.00;96834.72;5072771;28;20208;-84
2021/08/15 04:33:40;;;;;;;7.57;6.87;;;;;;;17.02;100.00;96839.75;5072571;28;20193;-84
2021/08/15 04:36:08;;;;;;;13.27;5.93;;;;;;;17.13;100.00;96835.78;5072927;28;20623;-84
2021/08/15 04:38:36;;;;;;;7.80;5.47;;;;;;;17.37;100.00;96835.47;5072262;28;20197;-84
2021/08/15 04:41:03;;;;;;;6.00;5.40;;;;;;;17.42;100.00;96830.38;5072899;28;20583;-84
2021/08/15 04:43:32;;;;;;;5.17;4.50;;;;;;;17.50;100.00;96837.44;5072660;28;20284;-84
2021/08/15 04:45:59;;;;;;;5.20;4.30;;;;;;;17.59;100.00;96833.63;5072440;28;20193;-84
2021/08/15 04:48:26;;;;;;;5.20;4.63;;;;;;;17.55;100.00;96835.03;5072001;28;20198;-84
2021/08/15 04:50:54;;;;;;;8.63;4.40;;;;;;;17.58;100.00;96826.69;5072315;28;20199;-84
2021/08/15 04:53:22;;;;;;;5.67;4.30;;;;;;;17.63;100.00;96823.44;5057838;28;20584;-82
2021/08/15 04:55:49;;;;;;;5.57;5.03;;;;;;;17.67;100.00;96824.75;5051986;28;20297;-84
2021/08/15 04:58:17;;;;;;;5.80;5.20;;;;;;;17.79;100.00;96831.22;5051932;28;20208;-84
2021/08/15 05:00:44;;;;;;;6.23;5.07;;;;;;;17.94;100.00;96825.81;5052196;28;20197;-84
2021/08/15 05:03:11;;;;;;;7.00;6.30;;;;;;;17.84;100.00;96818.19;5052300;28;20201;-84
2021/08/15 05:05:40;;;;;;;7.37;5.50;;;;;;;17.92;100.00;96826.03;5051894;28;20200;-84
2021/08/15 05:08:08;;;;;;;6.17;5.13;;;;;;;18.10;100.00;96825.56;5051703;28;20206;-84
2021/08/15 05:10:37;;;;;;;7.50;6.03;;;;;;;18.14;100.00;96826.81;5052411;28;20198;-84
2021/08/15 05:13:04;;;;;;;6.50;5.37;;;;;;;18.23;100.00;96831.00;5051817;28;20208;-84
2021/08/15 05:15:32;;;;;;;4.90;4.50;;;;;;;18.25;100.00;96831.63;5051309;28;20261;-84
2021/08/15 05:17:59;;;;;;;9.10;5.30;;;;;;;18.44;100.00;96831.97;5051660;28;20201;-84
2021/08/15 05:20:26;;;;;;;5.67;5.17;;;;;;;18.41;100.00;96835.00;5051752;28;20197;-84
2021/08/15 05:22:56;;;;;;;7.70;6.90;;;;;;;18.48;100.00;96836.69;5051657;28;20193;-84
2021/08/15 05:25:24;;;;;;;8.53;5.47;;;;;;;18.65;100.00;96837.22;5051824;28;20685;-85
2021/08/15 05:27:53;;;;;;;6.50;5.90;;;;;;;18.72;100.00;96843.44;5051415;28;20601;-84
2021/08/15 05:30:20;;;;;;;6.50;5.53;;;;;;;18.79;100.00;96842.66;5051775;28;20198;-84
2021/08/15 05:32:47;;;;;;;9.00;5.60;;;;;;;18.89;100.00;96841.28;5051391;28;20753;-85
2021/08/15 05:35:14;;;;;;;6.10;5.30;;;;;;;18.98;100.00;96847.25;5051508;28;20232;-84
2021/08/15 05:37:42;;;;;;;6.37;5.73;;;;;;;19.11;100.00;96846.50;5051626;28;20582;-84
2021/08/15 05:40:10;;;;;;;5.50;4.97;;;;;;;19.16;100.00;96852.91;5052050;28;20209;-84
2021/08/15 05:42:38;;;;;;;5.40;4.73;;;;;;;19.23;100.00;96848.41;5051510;28;20193;-84
2021/08/15 05:45:08;;;;;;;7.20;5.10;;;;;;;19.30;100.00;96853.78;5050978;28;20285;-85
2021/08/15 05:47:36;;;;;;;5.47;4.93;;;;;;;19.45;100.00;96851.75;5051824;28;20269;-84
2021/08/15 05:50:04;;;;;;;6.93;4.67;;;;;;;19.58;100.00;96853.66;5051653;28;20198;-84
2021/08/15 05:52:32;;;;;;;5.00;4.60;;;;;;;19.67;100.00;96849.81;5051495;28;20197;-85
2021/08/15 05:54:59;;;;;;;7.93;4.57;;;;;;;19.85;100.00;96845.75;5051361;28;20237;-85
2021/08/15 05:57:26;;;;;;;4.90;4.50;;;;;;;20.02;100.00;96849.69;5051143;28;20286;-84
2021/08/15 05:59:53;;;;;;;5.50;4.40;;;;;;;20.15;100.00;96863.00;5051561;28;20288;-84
2021/08/15 06:02:22;;;;;;;4.97;4.40;;;;;;;20.16;100.00;96856.66;5051713;28;20296;-84
2021/08/15 06:04:49;;;;;;;10.37;7.90;;;;;;;20.42;100.00;96860.34;5051266;28;20244;-85
2021/08/15 06:07:16;;;;;;;9.70;5.67;;;;;;;20.68;100.00;96862.22;5051669;28;20642;-84
2021/08/15 06:09:44;;;;;;;4.27;3.87;;;;;;;20.78;100.00;96861.78;5051407;28;20201;-84
2021/08/15 06:12:11;;;;;;;5.83;4.67;;;;;;;20.88;100.00;96856.81;5051360;28;20229;-85
2021/08/15 06:14:38;;;;;;;5.20;4.03;;;;;;;21.25;100.00;96859.81;5051401;28;20586;-84
2021/08/15 06:17:05;;;;;;;5.33;4.30;;;;;;;21.45;100.00;96854.41;5051530;28;20234;-85
2021/08/15 06:19:34;;;;;;;5.87;3.87;;;;;;;21.52;100.00;96858.69;5051415;28;20233;-85
2021/08/15 06:22:02;;;;;;;4.77;4.23;;;;;;;21.70;100.00;96857.97;5051239;28;20614;-85
2021/08/15 06:24:30;;;;;;;4.40;4.00;;;;;;;21.86;100.00;96867.38;5051384;28;20197;-85
2021/08/15 06:26:57;;;;;;;4.20;3.67;;;;;;;22.08;100.00;96862.47;5052355;28;20233;-85
2021/08/15 06:29:24;;;;;;;4.60;3.90;;;;;;;22.17;100.00;96861.22;5055206;28;20204;-86
2021/08/15 06:31:52;;;;;;;4.70;4.27;;;;;;;22.37;100.00;96863.72;5054630;28;20208;-84
2021/08/15 06:34:19;;;;;;;7.13;4.53;;;;;;;22.43;100.00;96870.06;5055130;28;20670;-85
2021/08/15 06:36:48;;;;;;;5.57;5.07;;;;;;;22.61;100.00;96870.09;5055095;28;20226;-85
2021/08/15 06:39:15;;;;;;;4.77;4.37;;;;;;;22.94;100.00;96875.19;5054727;28;20240;-85
2021/08/15 06:41:43;;;;;;;7.43;4.23;;;;;;;22.94;100.00;96877.06;5055072;28;20204;-85
2021/08/15 06:44:10;;;;;;;5.17;4.53;;;;;;;23.08;100.00;96883.91;5054835;28;20201;-85
2021/08/15 06:46:37;;;;;;;5.03;4.13;;;;;;;23.16;100.00;96885.47;5054795;28;20198;-85
2021/08/15 06:49:04;;;;;;;5.90;4.60;;;;;;;23.10;100.00;96886.34;5054313;28;20281;-85
2021/08/15 06:51:31;;;;;;;5.10;4.40;;;;;;;23.22;100.00;96893.44;5054686;28;20197;-85
2021/08/15 06:54:00;;;;;;;6.90;4.00;;;;;;;23.50;100.00;96887.53;5054416;28;20710;-84
2021/08/15 06:56:28;;;;;;;5.17;4.57;;;;;;;24.00;100.00;96883.81;5054327;28;20226;-85
2021/08/15 06:58:55;;;;;;;5.23;4.50;;;;;;;24.09;100.00;96889.69;5054608;28;20733;-85
2021/08/15 07:01:24;;;;;;;6.23;4.47;;;;;;;24.07;100.00;96897.13;5054454;28;20202;-85
2021/08/15 07:03:51;;;;;;;5.70;4.73;;;;;;;24.01;100.00;96904.25;5054709;28;20283;-85
2021/08/15 07:06:18;;;;;;;4.37;3.97;;;;;;;24.39;100.00;96889.66;5054311;28;20190;-85
2021/08/15 07:08:46;;;;;;;5.10;4.60;;;;;;;24.61;100.00;96898.00;5054224;28;20673;-82
2021/08/15 07:11:14;;;;;;;5.93;4.50;;;;;;;24.66;100.00;96900.78;5054342;28;20204;-82
2021/08/15 07:13:42;;;;;;;5.37;4.27;;;;;;;24.82;100.00;96896.59;5053982;28;20237;-82
2021/08/15 07:16:09;;;;;;;5.13;4.30;;;;;;;25.38;100.00;96898.66;5053695;28;20686;-82
2021/08/15 07:18:36;;;;;;;4.97;4.50;;;;;;;25.09;100.00;96897.75;5052266;28;20245;-82
2021/08/15 07:21:03;;;;;;;4.60;3.77;;;;;;;25.23;100.00;96892.16;5052346;28;20202;-82
2021/08/15 07:23:31;;;;;;;8.97;4.13;;;;;;;25.41;100.00;96901.97;5052064;28;20284;-82
2021/08/15 07:25:58;;;;;;;4.73;4.27;;;;;;;25.84;100.00;96894.25;5050527;28;20273;-82
2021/08/15 07:28:26;;;;;;;4.30;3.90;;;;;;;26.14;100.00;96895.84;5054391;28;20202;-81
2021/08/15 07:30:53;;;;;;;5.33;3.93;;;;;;;26.49;100.00;96889.47;5051855;28;20202;-81
2021/08/15 07:33:21;;;;;;;4.57;3.85;;;;;;;26.82;100.00;96887.84;5052950;28;20588;-83
2021/08/15 07:35:48;;;;;;;3.95;3.50;;;;;;;26.95;100.00;96893.72;5053534;28;20230;-83
2021/08/15 07:38:15;;;;;;;5.63;4.17;;;;;;;27.10;100.00;96890.41;5052915;28;20281;-83
2021/08/15 07:40:42;;;;;;;4.78;4.38;;;;;;;27.31;100.00;96890.72;5053605;28;20289;-83
2021/08/15 07:43:10;;;;;;;5.63;4.90;;;;;;;27.42;100.00;96889.78;5053456;28;20198;-83
2021/08/15 07:45:38;;;;;;;6.30;4.18;;;;;;;27.88;100.00;96891.16;5053370;28;20202;-83
2021/08/15 07:48:06;;;;;;;4.10;3.70;;;;;;;27.76;100.00;96892.38;5053709;28;20288;-83
2021/08/15 07:50:38;;;;;;;4.53;4.13;;;;;;;27.69;100.00;96885.25;5053415;28;20451;-83
2021/08/15 07:53:16;;;;;;;5.07;3.78;;;;;;;27.85;100.00;96886.28;5053181;28;20277;-84
2021/08/15 07:55:44;;;;;;;5.07;3.65;;;;;;;28.15;100.00;96882.25;5053174;28;20182;-83
2021/08/15 07:58:11;;;;;;;4.15;3.35;;;;;;;28.56;100.00;96875.34;5053121;28;20233;-83
2021/08/15 08:00:40;;;;;;;4.80;4.30;;;;;;;28.72;100.00;96870.88;5053601;28;20281;-83
2021/08/15 08:03:07;;;;;;;4.07;3.75;;;;;;;29.02;100.00;96878.38;5052994;28;20230;-83
2021/08/15 08:05:34;;;;;;;3.95;3.65;;;;;;;28.89;100.00;96881.53;5052986;28;20255;-83
2021/08/15 08:08:01;;;;;;;6.95;4.53;;;;;;;29.09;100.00;96868.13;5053293;28;20202;-82
2021/08/15 08:10:29;;;;;;;4.28;3.88;;;;;;;28.73;100.00;96867.06;5053269;28;20284;-83
2021/08/15 08:12:56;;;;;;;5.50;4.18;;;;;;;28.15;100.00;96866.84;5053027;28;20196;-82
2021/08/15 08:15:23;;;;;;;4.50;4.10;;;;;;;28.39;100.00;96864.66;5052895;28;20263;-83
2021/08/15 08:17:52;;;;;;;6.50;5.45;;;;;;;28.61;100.00;96861.88;5052764;28;20583;-83
2021/08/15 08:20:21;;;;;;;4.85;4.45;;;;;;;28.80;100.00;96864.16;5053188;28;20704;-82
2021/08/15 08:22:49;;;;;;;5.00;4.32;;;;;;;28.73;100.00;96866.25;5052744;28;20194;-83
2021/08/15 08:25:16;;;;;;;10.13;4.32;;;;;;;28.87;100.00;96862.84;5052993;28;20272;-83
2021/08/15 08:27:43;;;;;;;5.38;4.90;;;;;;;28.98;100.00;96868.31;5052688;28;20229;-82
2021/08/15 08:30:12;;;;;;;4.28;3.50;;;;;;;29.18;100.00;96859.53;5052920;28;20245;-83
2021/08/15 08:32:39;;;;;;;6.35;3.88;;;;;;;28.89;100.00;96854.47;5052770;28;20218;-83
2021/08/15 08:35:09;;;;;;;4.40;4.00;;;;;;;28.63;100.00;96867.81;5052702;28;20698;-83
2021/08/15 08:37:37;;;;;;;4.30;3.88;;;;;;;28.81;100.00;96858.47;5052422;28;20225;-83
2021/08/15 08:40:04;;;;;;;4.90;4.40;;;;;;;29.02;100.00;96854.03;5053027;28;20233;-83
2021/08/15 08:42:32;;;;;;;6.32;4.45;;;;;;;28.94;100.00;96851.78;5052727;28;20570;-83
2021/08/15 08:45:02;;;;;;;5.03;4.10;;;;;;;28.59;100.00;96855.06;5052385;28;20204;-82
2021/08/15 08:47:30;;;;;;;6.38;4.30;;;;;;;28.93;100.00;96844.75;5052718;28;20688;-83
2021/08/15 08:49:59;;;;;;;4.88;4.15;;;;;;;28.69;100.00;96849.75;5052328;28;20633;-83
2021/08/15 08:52:30;;;;;;;4.55;4.15;;;;;;;28.81;100.00;96850.34;5052267;28;20648;-82
2021/08/15 08:54:57;;;;;;;6.75;4.38;;;;;;;28.74;100.00;96855.16;5052077;28;20721;-83
2021/08/15 08:57:25;;;;;;;8.07;4.22;;;;;;;29.05;100.00;96841.88;5052116;28;20231;-83
2021/08/15 08:59:52;;;;;;;4.32;3.92;;;;;;;29.19;100.00;96844.91;5052254;28;20233;-83
2021/08/15 09:02:20;;;;;;;5.32;3.78;;;;;;;29.02;100.00;96840.50;5052134;28;20201;-82
2021/08/15 09:04:48;;;;;;;3.95;3.38;;;;;;;29.45;100.00;96843.94;5051979;28;20328;-82
2021/08/15 09:07:17;;;;;;;4.82;3.90;;;;;;;29.26;100.00;96849.00;5051992;28;20241;-83
2021/08/15 09:09:54;;;;;;;5.65;4.68;;;;;;;29.74;100.00;96838.09;5052245;28;20233;-83
2021/08/15 09:12:22;;;;;;;4.57;4.13;;;;;;;29.76;100.00;96841.38;5051996;28;20205;-83
2021/08/15 09:15:07;;;;;;;4.38;3.97;;;;;;;29.56;100.00;96834.78;5052387;28;20256;-83
2021/08/15 09:17:35;;;;;;;4.38;4.00;;;;;;;29.12;100.00;96835.13;5052189;28;20592;-83
2021/08/15 09:20:02;;;;;;;7.05;3.45;;;;;;;29.29;100.00;96834.13;5051942;28;20701;-83
2021/08/15 09:22:31;;;;;;;5.15;3.83;;;;;;;29.64;100.00;96835.38;5051584;28;20251;-83
2021/08/15 09:25:02;;;;;;;5.18;4.07;;;;;;;29.53;100.00;96827.19;5051918;28;20237;-82
2021/08/15 09:27:31;;;;;;;4.60;3.80;;;;;;;29.43;100.00;96829.84;5051693;28;20547;-83
2021/08/15 09:30:25;;;;;;;4.30;3.90;;;;;;;29.57;100.00;96822.84;5051879;28;20237;-83
2021/08/15 09:32:56;;;;;;;5.90;3.67;;;;;;;29.71;100.00;96823.19;5016584;28;20201;-83
2021/08/15 09:35:29;;;;;;;4.60;4.18;;;;;;;29.64;100.00;96821.81;5051809;28;20192;-83
2021/08/15 09:37:59;;;;;;;6.85;3.90;;;;;;;29.63;100.00;96817.50;5051625;28;20297;-83
2021/08/15 09:40:32;;;;;;;8.13;4.32;;;;;;;29.83;100.00;96814.84;5051635;28;20198;-83
2021/08/15 09:43:00;;;;;;;5.57;4.07;;;;;;;30.24;100.00;96813.00;5051376;28;20686;-83
2021/08/15 09:45:38;;;;;;;7.65;4.40;;;;;;;30.05;100.00;96823.53;5051644;28;20255;-83
2021/08/15 09:48:29;;;;;;;5.70;3.92;;;;;;;30.02;100.00;96809.69;5051547;28;20190;-83
2021/08/15 09:51:21;;;;;;;3.95;3.58;;;;;;;30.28;100.00;96803.25;5052055;28;20240;-83
2021/08/15 09:54:00;;;;;;;5.63;4.28;;;;;;;29.71;100.00;96806.13;5051102;28;20617;-83
2021/08/15 09:56:36;;;;;;;5.20;4.32;;;;;;;29.79;100.00;96800.16;5051646;28;20206;-83
2021/08/15 09:59:12;;;;;;;4.00;3.67;;;;;;;29.94;100.00;96793.97;5051471;28;20189;-83
2021/08/15 10:01:41;;;;;;;8.02;4.13;;;;;;;30.07;100.00;96788.84;5052687;28;20617;-84
2021/08/15 10:04:09;;;;;;;4.82;4.15;;;;;;;30.05;100.00;96785.56;5055788;28;20761;-83
2021/08/15 10:06:37;;;;;;;5.40;4.28;;;;;;;30.02;100.00;96777.19;5055488;28;20237;-82
2021/08/15 10:09:05;;;;;;;5.10;4.47;;;;;;;29.79;100.00;96781.22;5055474;28;20197;-83
2021/08/15 10:11:32;;;;;;;4.30;3.90;;;;;;;29.89;100.00;96785.84;5055478;28;20194;-83
2021/08/15 10:14:01;;;;;;;5.05;3.28;;;;;;;29.77;100.00;96767.94;5055167;28;20244;-83
2021/08/15 10:16:31;;;;;;;9.02;3.97;;;;;;;29.48;100.00;96770.31;5055317;28;20704;-83
2021/08/15 10:19:02;;;;;;;3.92;3.60;;;;;;;30.14;100.00;96760.66;5055495;28;20208;-83
2021/08/15 10:21:31;;;;;;;6.35;3.92;;;;;;;30.45;100.00;96769.63;5055348;28;20186;-83
2021/08/15 10:24:07;;;;;;;4.05;3.58;;;;;;;30.63;100.00;96763.59;5054858;28;20285;-83
2021/08/15 10:26:43;;;;;;;4.35;3.95;;;;;;;30.27;100.00;96763.66;5055164;28;20272;-83
2021/08/15 10:29:41;;;;;;;5.38;3.67;;;;;;;30.61;100.00;96760.34;5055399;28;20204;-83
2021/08/15 10:32:23;;;;;;;4.43;4.03;;;;;;;30.07;100.00;96767.16;5038303;28;20201;-83
2021/08/15 10:35:18;;;;;;;5.90;4.15;;;;;;;29.80;100.00;96753.06;5055132;28;20190;-84
2021/08/15 10:37:48;;;;;;;3.85;3.25;;;;;;;29.58;100.00;96751.38;5055012;28;20214;-84
2021/08/15 10:40:58;;;;;;;4.47;4.07;;;;;;;30.05;100.00;96735.97;5054117;28;20190;-83
2021/08/15 10:44:02;;;;;;;6.28;4.03;;;;;;;30.60;100.00;96730.78;5053860;28;20655;-82
2021/08/15 10:46:31;;;;;;;4.07;3.67;;;;;;;30.14;100.00;96742.50;5053838;28;20189;-82
2021/08/15 10:48:59;;;;;;;5.53;4.50;;;;;;;30.09;100.00;96737.88;5053412;28;20289;-83
2021/08/15 10:51:50;;;;;;;3.47;3.17;;;;;;;30.35;100.00;96729.75;5053445;28;20198;-83
2021/08/15 10:55:06;;;;;;;4.93;3.80;;;;;;;30.26;100.00;96715.94;5053248;28;20237;-83
2021/08/15 10:57:42;;;;;;;3.97;3.58;;;;;;;30.59;100.00;96719.13;5052980;28;20210;-81
2021/08/15 11:00:42;;;;;;;4.25;3.85;;;;;;;31.13;100.00;96717.56;5053379;28;20181;-83
2021/08/15 11:04:00;;;;;;;4.60;4.20;;;;;;;31.31;100.00;96713.41;5053255;28;20256;-83
2021/08/15 11:06:50;;;;;;;5.20;3.70;;;;;;;31.01;100.00;96713.28;4972200;28;20275;-83
2021/08/15 11:09:19;;;;;;;4.20;3.80;;;;;;;31.30;100.00;96709.88;5052988;28;20240;-83
2021/08/15 11:12:16;;;;;;;5.55;3.83;;;;;;;31.49;100.00;96708.16;5053196;28;20689;-83
2021/08/15 11:14:58;;;;;;;4.50;4.10;;;;;;;30.82;100.00;96708.75;4991754;28;20220;-83
2021/08/15 11:17:27;;;;;;;6.15;3.72;;;;;;;30.62;100.00;96705.00;5044950;28;20312;-83
2021/08/15 11:19:54;;;;;;;4.63;4.00;;;;;;;30.88;100.00;96694.91;5052774;28;20638;-83
2021/08/15 11:22:30;;;;;;;6.10;3.80;;;;;;;31.57;100.00;96685.03;5052840;28;20200;-83
2021/08/15 11:25:00;;;;;;;5.97;4.18;;;;;;;31.23;100.00;96688.47;5053137;28;20708;-83
2021/08/15 11:27:33;;;;;;;5.68;4.07;;;;;;;31.28;100.00;96690.34;5052952;28;20281;-83
2021/08/15 11:30:05;;;;;;;3.65;3.35;;;;;;;31.35;100.00;96687.31;5053013;28;20185;-83
2021/08/15 11:32:34;;;;;;;7.10;4.55;;;;;;;31.39;100.00;96689.22;5052759;28;20186;-83
2021/08/15 11:35:03;;;;;;;5.32;3.78;;;;;;;31.20;100.00;96672.72;5052743;28;20194;-83
2021/08/15 11:37:33;;;;;;;5.10;3.65;;;;;;;31.47;100.00;96671.50;5052548;28;20320;-84